Time;durP1;ratioP1;P1;durP2;ratioP2;P2;SDS_P1;SDS_P2;PMS_P1;PMS_P2;Temp;Humidity;BMP_temperature;BMP_pressure;BME280_temperature;BME280_humidity;BME280_pressure;Samples;Min_cycle;Max_cycle;Signal;HPM_P1;HPM_P2
2023/12/28 00:01:28;;;;;;;;;;;;;;;6.81;60.01;100737.00;5071948;28;19920;-83
2023/12/28 00:03:54;;;;;;;;;;;;;;;6.78;59.61;100729.38;5072030;28;20300;-82
2023/12/28 00:06:19;;;;;;;;;;;;;;;6.80;59.94;100737.94;5070682;28;19974;-80
2023/12/28 00:08:44;;;;;;;;;;;;;;;6.74;59.29;100735.81;5070640;28;19924;-84
2023/12/28 00:11:09;;;;;;;;;;;;;;;6.74;60.19;100732.38;5070684;28;20358;-81
2023/12/28 00:13:35;;;;;;;;;;;;;;;6.66;60.22;100740.84;5072124;28;19919;-81
2023/12/28 00:16:00;;;;;;;;;;;;;;;6.62;60.18;100735.00;5071918;28;20378;-81
2023/12/28 00:18:25;;;;;;;;;;;;;;;6.63;60.52;100735.81;5071888;28;20000;-81
2023/12/28 00:20:51;;;;;;;;;;;;;;;6.67;60.10;100742.50;5070639;28;20347;-81
2023/12/28 00:23:16;;;;;;;;;;;;;;;6.69;59.89;100761.59;5071878;28;19999;-82
2023/12/28 00:25:42;;;;;;;;;;;;;;;6.64;59.78;100751.44;5070570;28;19923;-82
2023/12/28 00:28:07;;;;;;;;;;;;;;;6.59;59.62;100753.63;5071766;28;21103;-83
2023/12/28 00:30:32;;;;;;;;;;;;;;;6.61;59.79;100753.50;5071693;28;20003;-82
2023/12/28 00:32:58;;;;;;;;;;;;;;;6.61;60.05;100754.31;5071644;28;19970;-83
2023/12/28 00:35:23;;;;;;;;;;;;;;;6.65;59.84;100762.78;5070556;28;19912;-83
2023/12/28 00:37:48;;;;;;;;;;;;;;;6.65;60.23;100766.25;5070484;28;19916;-81
2023/12/28 00:40:14;;;;;;;;;;;;;;;6.63;60.20;100762.91;5071512;28;20400;-83
2023/12/28 00:42:40;;;;;;;;;;;;;;;6.62;60.30;100771.72;5070417;28;20058;-82
2023/12/28 00:45:06;;;;;;;;;;;;;;;6.62;60.32;100784.03;5071778;28;19934;-82
2023/12/28 00:47:31;;;;;;;;;;;;;;;6.60;59.68;100773.66;5070279;28;20437;-82
2023/12/28 00:49:56;;;;;;;;;;;;;;;6.60;59.71;100771.03;5070258;28;19919;-82
2023/12/28 00:52:22;;;;;;;;;;;;;;;6.57;59.68;100781.75;5071392;28;20004;-82
2023/12/28 00:54:47;;;;;;;;;;;;;;;6.55;59.97;100772.34;5071538;28;20471;-83
2023/12/28 00:57:12;;;;;;;;;;;;;;;6.54;59.71;100773.31;5073229;28;19986;-83
2023/12/28 00:59:38;;;;;;;;;;;;;;;6.53;60.39;100772.47;5075477;28;19947;-81
2023/12/28 01:02:03;;;;;;;;;;;;;;;6.52;60.24;100770.81;5075383;28;19971;-83
2023/12/28 01:04:28;;;;;;;;;;;;;;;6.53;60.08;100769.00;5074218;28;19916;-83
2023/12/28 01:06:53;;;;;;;;;;;;;;;6.52;59.76;100772.59;5073954;28;19928;-84
2023/12/28 01:09:19;;;;;;;;;;;;;;;6.52;60.09;100775.22;5073911;28;19921;-84
2023/12/28 01:11:44;;;;;;;;;;;;;;;6.47;59.94;100775.56;5075529;28;19912;-83
2023/12/28 01:14:09;;;;;;;;;;;;;;;6.49;59.88;100771.03;5076231;28;20385;-85
2023/12/28 01:16:35;;;;;;;;;;;;;;;6.50;60.37;100772.72;5075192;28;19912;-81
2023/12/28 01:19:01;;;;;;;;;;;;;;;6.49;60.09;100770.22;5075039;28;19912;-81
2023/12/28 01:21:26;;;;;;;;;;;;;;;6.48;60.07;100776.41;5075022;28;20350;-82
2023/12/28 01:23:51;;;;;;;;;;;;;;;6.46;59.56;100773.06;5074928;28;19920;-82
2023/12/28 01:26:17;;;;;;;;;;;;;;;6.41;59.69;100773.44;5073636;28;20450;-82
2023/12/28 01:28:42;;;;;;;;;;;;;;;6.40;59.85;100773.56;5073601;28;19959;-83
2023/12/28 01:31:07;;;;;;;;;;;;;;;6.38;60.43;100774.53;5075176;28;19920;-81
2023/12/28 01:33:33;;;;;;;;;;;;;;;6.39;59.99;100777.97;5074809;28;19951;-82
2023/12/28 01:35:58;;;;;;;;;;;;;;;6.40;59.70;100770.94;5074810;28;19912;-82
2023/12/28 01:38:24;;;;;;;;;;;;;;;6.37;59.88;100775.47;5074863;28;19920;-83
2023/12/28 01:40:49;;;;;;;;;;;;;;;6.34;59.66;100770.47;5074670;28;19913;-81
2023/12/28 01:43:14;;;;;;;;;;;;;;;6.37;60.34;100770.22;5074769;28;19912;-82
2023/12/28 01:45:39;;;;;;;;;;;;;;;6.37;59.61;100772.00;5074717;28;20282;-82
2023/12/28 01:48:05;;;;;;;;;;;;;;;6.35;60.15;100769.50;5074647;28;19920;-81
2023/12/28 01:50:31;;;;;;;;;;;;;;;6.35;60.16;100773.94;5074782;28;20388;-81
2023/12/28 01:52:58;;;;;;;;;;;;;;;6.29;59.83;100783.09;5074570;28;19912;-81
2023/12/28 01:55:24;;;;;;;;;;;;;;;6.22;60.01;100774.06;5074535;28;19912;-84
2023/12/28 01:57:49;;;;;;;;;;;;;;;6.18;59.84;100780.50;5074418;28;19919;-83
2023/12/28 02:00:15;;;;;;;;;;;;;;;6.15;59.69;100778.09;5074318;28;20313;-82
2023/12/28 02:02:41;;;;;;;;;;;;;;;6.14;60.40;100783.47;5074362;28;19913;-83
2023/12/28 02:05:07;;;;;;;;;;;;;;;6.15;59.69;100780.72;5074453;28;19912;-81
2023/12/28 02:07:32;;;;;;;;;;;;;;;6.15;59.72;100782.53;5072790;28;19921;-83
2023/12/28 02:09:57;;;;;;;;;;;;;;;6.10;60.02;100782.88;5073443;28;19917;-81
2023/12/28 02:12:23;;;;;;;;;;;;;;;6.07;59.97;100784.91;5074338;28;20343;-82
2023/12/28 02:14:48;;;;;;;;;;;;;;;6.02;60.65;100780.84;5074268;28;19919;-82
2023/12/28 02:17:20;;;;;;;;;;;;;;;5.97;60.43;100780.38;5072751;28;20003;-83
2023/12/28 02:19:54;;;;;;;;;;;;;;;5.98;60.57;100775.97;5073943;28;20006;-79
2023/12/28 02:22:21;;;;;;;;;;;;;;;6.01;60.88;100781.81;5072789;28;19919;-81
2023/12/28 02:24:58;;;;;;;;;;;;;;;6.07;60.04;100777.03;5073982;28;19943;-81
2023/12/28 02:27:24;;;;;;;;;;;;;;;6.10;59.98;100780.25;5072496;28;19912;-80
2023/12/28 02:29:49;;;;;;;;;;;;;;;6.14;60.52;100778.22;5073819;28;19916;-82
2023/12/28 02:32:16;;;;;;;;;;;;;;;6.13;60.10;100784.44;5073639;28;20394;-83
2023/12/28 02:34:43;;;;;;;;;;;;;;;6.11;60.26;100787.16;5072513;28;20321;-81
2023/12/28 02:37:09;;;;;;;;;;;;;;;6.14;60.69;100786.09;5073801;28;19912;-81
2023/12/28 02:39:36;;;;;;;;;;;;;;;6.14;60.20;100793.97;5073653;28;19912;-81
2023/12/28 02:42:01;;;;;;;;;;;;;;;6.12;60.32;100793.25;5073701;28;20003;-81
2023/12/28 02:44:26;;;;;;;;;;;;;;;6.11;60.61;100796.81;5073386;28;20384;-82
2023/12/28 02:46:51;;;;;;;;;;;;;;;6.10;60.18;100797.78;5073429;28;19920;-82
2023/12/28 02:49:17;;;;;;;;;;;;;;;6.11;60.06;100797.66;5072038;28;19917;-81
2023/12/28 02:51:42;;;;;;;;;;;;;;;6.09;60.66;100794.31;5072277;28;20014;-81
2023/12/28 02:54:08;;;;;;;;;;;;;;;6.10;60.42;100801.22;5071859;28;19913;-81
2023/12/28 02:56:33;;;;;;;;;;;;;;;6.10;60.30;100800.41;5073049;28;19909;-81
2023/12/28 02:58:58;;;;;;;;;;;;;;;6.08;60.30;100805.75;5072098;28;20393;-81
2023/12/28 03:01:24;;;;;;;;;;;;;;;6.01;60.47;100804.56;5073281;28;19919;-82
2023/12/28 03:03:49;;;;;;;;;;;;;;;6.00;60.60;100797.66;5073198;28;20073;-81
2023/12/28 03:06:14;;;;;;;;;;;;;;;6.00;60.11;100800.28;5071852;28;19927;-83
2023/12/28 03:08:39;;;;;;;;;;;;;;;6.01;60.17;100801.94;5073047;28;19959;-81
2023/12/28 03:11:05;;;;;;;;;;;;;;;6.00;60.63;100805.50;5071786;28;19919;-82
2023/12/28 03:13:31;;;;;;;;;;;;;;;6.00;60.07;100805.50;5071699;28;19912;-81
2023/12/28 03:15:57;;;;;;;;;;;;;;;5.96;60.34;100798.84;5071519;28;19919;-81
2023/12/28 03:18:22;;;;;;;;;;;;;;;5.86;60.26;100801.28;5073013;28;20007;-81
2023/12/28 03:20:47;;;;;;;;;;;;;;;5.83;59.89;100803.28;5072833;28;19912;-81
2023/12/28 03:23:12;;;;;;;;;;;;;;;5.75;60.12;100803.88;5071599;28;19963;-81
2023/12/28 03:25:38;;;;;;;;;;;;;;;5.65;59.68;100808.97;5071707;28;19912;-82
2023/12/28 03:28:03;;;;;;;;;;;;;;;5.58;59.95;100804.31;5072706;28;19924;-82
2023/12/28 03:30:29;;;;;;;;;;;;;;;5.49;60.21;100803.22;5072434;28;19904;-81
2023/12/28 03:32:55;;;;;;;;;;;;;;;5.40;59.92;100799.50;5072609;28;19967;-82
2023/12/28 03:35:20;;;;;;;;;;;;;;;5.40;60.28;100809.97;5072592;28;19919;-81
2023/12/28 03:37:45;;;;;;;;;;;;;;;5.42;60.41;100804.63;5071362;28;19920;-82
2023/12/28 03:40:11;;;;;;;;;;;;;;;5.40;60.53;100807.34;5072416;28;19982;-81
2023/12/28 03:42:36;;;;;;;;;;;;;;;5.39;60.86;100813.53;5071128;28;19912;-81
2023/12/28 03:45:01;;;;;;;;;;;;;;;5.39;60.42;100813.53;5072620;28;19912;-81
2023/12/28 03:47:27;;;;;;;;;;;;;;;5.41;60.65;100814.25;5072514;28;19963;-81
2023/12/28 03:49:52;;;;;;;;;;;;;;;5.39;60.51;100808.31;5072269;28;19931;-81
2023/12/28 03:52:17;;;;;;;;;;;;;;;5.38;60.18;100811.88;5072166;28;19917;-81
2023/12/28 03:54:43;;;;;;;;;;;;;;;5.36;60.53;100802.47;5070930;28;19944;-82
2023/12/28 03:57:08;;;;;;;;;;;;;;;5.30;60.50;100801.13;5071051;28;20304;-81
2023/12/28 03:59:33;;;;;;;;;;;;;;;5.27;60.60;100809.22;5071163;28;19913;-81
2023/12/28 04:01:59;;;;;;;;;;;;;;;5.23;60.50;100794.69;5072351;28;19966;-81
2023/12/28 04:04:24;;;;;;;;;;;;;;;5.22;60.69;100797.41;5072245;28;19912;-81
2023/12/28 04:06:49;;;;;;;;;;;;;;;5.24;60.59;100792.91;5072173;28;20432;-81
2023/12/28 04:09:14;;;;;;;;;;;;;;;5.21;60.85;100796.56;5072154;28;19970;-81
2023/12/28 04:11:40;;;;;;;;;;;;;;;5.22;60.56;100792.16;5072143;28;19963;-81
2023/12/28 04:14:05;;;;;;;;;;;;;;;5.18;60.94;100788.91;5070905;28;19956;-81
2023/12/28 04:16:30;;;;;;;;;;;;;;;5.20;60.76;100797.53;5072566;28;19912;-81
2023/12/28 04:18:56;;;;;;;;;;;;;;;5.16;61.00;100787.34;5072354;28;19912;-81
2023/12/28 04:21:21;;;;;;;;;;;;;;;5.15;61.17;100791.75;5071027;28;20044;-81
2023/12/28 04:23:46;;;;;;;;;;;;;;;5.11;61.03;100809.47;5072350;28;20345;-81
2023/12/28 04:26:12;;;;;;;;;;;;;;;5.13;60.80;100811.97;5072311;28;19919;-81
2023/12/28 04:28:37;;;;;;;;;;;;;;;5.06;61.06;100805.50;5072161;28;19945;-82
2023/12/28 04:31:03;;;;;;;;;;;;;;;5.05;61.20;100809.91;5071525;28;20009;-81
2023/12/28 04:33:29;;;;;;;;;;;;;;;5.00;61.21;100808.59;5070824;28;20013;-81
2023/12/28 04:35:54;;;;;;;;;;;;;;;4.99;61.12;100806.91;5070957;28;20030;-81
2023/12/28 04:38:19;;;;;;;;;;;;;;;5.02;61.12;100807.53;5072069;28;19919;-81
2023/12/28 04:40:44;;;;;;;;;;;;;;;5.04;61.04;100813.47;5072411;28;19927;-81
2023/12/28 04:43:10;;;;;;;;;;;;;;;5.04;61.42;100813.47;5072455;28;20411;-81
2023/12/28 04:45:35;;;;;;;;;;;;;;;5.05;61.08;100807.31;5072568;28;19913;-81
2023/12/28 04:48:00;;;;;;;;;;;;;;;5.09;61.23;100816.59;5072372;28;20404;-81
2023/12/28 04:50:26;;;;;;;;;;;;;;;5.15;60.93;100817.09;5071120;28;19913;-81
2023/12/28 04:52:51;;;;;;;;;;;;;;;5.13;61.38;100811.97;5072417;28;19946;-80
2023/12/28 04:55:16;;;;;;;;;;;;;;;5.14;61.27;100812.81;5072470;28;19919;-81
2023/12/28 04:57:42;;;;;;;;;;;;;;;5.13;60.85;100808.53;5072230;28;19912;-81
2023/12/28 05:00:08;;;;;;;;;;;;;;;5.13;61.16;100798.88;5071825;28;20343;-81
2023/12/28 05:02:33;;;;;;;;;;;;;;;5.14;61.17;100804.97;5071955;28;19920;-81
2023/12/28 05:04:58;;;;;;;;;;;;;;;5.14;61.07;100810.19;5072153;28;20301;-81
2023/12/28 05:07:24;;;;;;;;;;;;;;;5.15;61.21;100810.09;5070783;28;20062;-81
2023/12/28 05:09:49;;;;;;;;;;;;;;;5.15;61.24;100817.09;5072137;28;20286;-81
2023/12/28 05:12:14;;;;;;;;;;;;;;;5.11;61.53;100819.09;5072051;28;19966;-81
2023/12/28 05:14:39;;;;;;;;;;;;;;;5.09;61.25;100819.22;5071466;28;19912;-81
2023/12/28 05:17:05;;;;;;;;;;;;;;;5.08;61.04;100829.81;5070441;28;19919;-81
2023/12/28 05:19:30;;;;;;;;;;;;;;;5.01;61.67;100826.78;5071863;28;19998;-81
2023/12/28 05:21:55;;;;;;;;;;;;;;;5.03;61.41;100824.06;5070507;28;19919;-82
2023/12/28 05:24:20;;;;;;;;;;;;;;;4.94;61.19;100830.81;5071566;28;19966;-81
2023/12/28 05:26:46;;;;;;;;;;;;;;;4.94;61.58;100815.09;5070579;28;19967;-81
2023/12/28 05:29:11;;;;;;;;;;;;;;;4.88;61.71;100825.16;5072526;28;19926;-81
2023/12/28 05:31:36;;;;;;;;;;;;;;;4.83;61.88;100819.44;5070723;28;19916;-81
2023/12/28 05:34:02;;;;;;;;;;;;;;;4.88;61.63;100817.31;5072322;28;19916;-81
2023/12/28 05:36:27;;;;;;;;;;;;;;;4.89;61.39;100816.38;5071969;28;19921;-81
2023/12/28 05:38:52;;;;;;;;;;;;;;;4.91;61.58;100824.94;5071910;28;19913;-81
2023/12/28 05:41:17;;;;;;;;;;;;;;;4.87;61.63;100826.94;5072258;28;19913;-81
2023/12/28 05:43:43;;;;;;;;;;;;;;;4.87;61.58;100824.34;5073658;28;19912;-81
2023/12/28 05:46:08;;;;;;;;;;;;;;;4.87;61.42;100821.72;5076026;28;19988;-81
2023/12/28 05:48:33;;;;;;;;;;;;;;;4.88;61.57;100820.78;5076250;28;19970;-81
2023/12/28 05:50:59;;;;;;;;;;;;;;;4.85;61.35;100820.16;5076027;28;19920;-81
2023/12/28 05:53:24;;;;;;;;;;;;;;;4.77;61.63;100820.72;5075945;28;19913;-81
2023/12/28 05:55:49;;;;;;;;;;;;;;;4.71;61.59;100823.75;5075039;28;19913;-81
2023/12/28 05:58:15;;;;;;;;;;;;;;;4.69;61.92;100820.41;5075279;28;19913;-81
2023/12/28 06:00:40;;;;;;;;;;;;;;;4.67;61.78;100828.38;5075576;28;19931;-81
2023/12/28 06:03:05;;;;;;;;;;;;;;;4.66;61.88;100825.88;5076244;28;19954;-81
2023/12/28 06:05:31;;;;;;;;;;;;;;;4.69;61.67;100831.72;5075596;28;19912;-82
2023/12/28 06:07:56;;;;;;;;;;;;;;;4.61;61.81;100833.22;5076614;28;19920;-81
2023/12/28 06:10:22;;;;;;;;;;;;;;;4.53;62.06;100841.59;5078908;28;19913;-81
2023/12/28 06:12:47;;;;;;;;;;;;;;;4.52;61.95;100837.31;5077763;28;20447;-80
2023/12/28 06:15:12;;;;;;;;;;;;;;;4.47;62.09;100836.78;5077812;28;20454;-81
2023/12/28 06:17:38;;;;;;;;;;;;;;;4.37;62.43;100831.34;5079635;28;19950;-80
2023/12/28 06:20:04;;;;;;;;;;;;;;;4.41;62.57;100835.41;5081673;28;19912;-81
2023/12/28 06:22:29;;;;;;;;;;;;;;;4.49;62.46;100842.75;5077894;28;19944;-81
2023/12/28 06:24:55;;;;;;;;;;;;;;;4.58;62.52;100849.13;5079113;28;19919;-80
2023/12/28 06:27:20;;;;;;;;;;;;;;;4.67;62.00;100851.09;5079710;28;19912;-81
2023/12/28 06:29:45;;;;;;;;;;;;;;;4.72;62.02;100847.19;5077503;28;20325;-81
2023/12/28 06:32:11;;;;;;;;;;;;;;;4.76;61.70;100846.03;5077181;28;19913;-81
2023/12/28 06:34:36;;;;;;;;;;;;;;;4.76;61.77;100850.44;5078443;28;19955;-80
2023/12/28 06:37:01;;;;;;;;;;;;;;;4.78;62.00;100845.94;5079647;28;19912;-81
2023/12/28 06:39:27;;;;;;;;;;;;;;;4.85;61.60;100852.41;5078107;28;19916;-81
2023/12/28 06:41:52;;;;;;;;;;;;;;;4.91;61.56;100843.28;5076996;28;19923;-80
2023/12/28 06:44:17;;;;;;;;;;;;;;;4.93;61.61;100851.84;5078201;28;19912;-80
2023/12/28 06:46:42;;;;;;;;;;;;;;;4.96;61.56;100855.09;5077523;28;19918;-81
2023/12/28 06:49:08;;;;;;;;;;;;;;;5.00;61.63;100855.69;5076193;28;19917;-79
2023/12/28 06:51:33;;;;;;;;;;;;;;;5.03;61.53;100855.47;5076578;28;19999;-81
2023/12/28 06:53:59;;;;;;;;;;;;;;;5.04;61.56;100857.97;5075944;28;19913;-81
2023/12/28 06:56:24;;;;;;;;;;;;;;;5.08;61.46;100861.22;5074379;28;20396;-81
2023/12/28 06:58:49;;;;;;;;;;;;;;;5.13;61.34;100866.13;5075080;28;19912;-81
2023/12/28 07:01:15;;;;;;;;;;;;;;;5.15;61.24;100856.38;5073592;28;19965;-82
2023/12/28 07:03:40;;;;;;;;;;;;;;;5.15;61.45;100865.06;5072126;28;20401;-82
2023/12/28 07:06:06;;;;;;;;;;;;;;;5.20;61.56;100865.59;5072212;28;20007;-81
2023/12/28 07:08:31;;;;;;;;;;;;;;;5.25;61.43;100871.34;5073826;28;19920;-81
2023/12/28 07:10:57;;;;;;;;;;;;;;;5.30;61.23;100863.97;5073768;28;20292;-81
2023/12/28 07:13:22;;;;;;;;;;;;;;;5.36;61.01;100858.28;5073520;28;19924;-81
2023/12/28 07:15:48;;;;;;;;;;;;;;;5.42;60.89;100859.63;5073568;28;19915;-81
2023/12/28 07:18:13;;;;;;;;;;;;;;;5.46;61.00;100868.09;5073427;28;19912;-81
2023/12/28 07:20:39;;;;;;;;;;;;;;;5.48;61.10;100866.19;5073193;28;19935;-81
2023/12/28 07:23:04;;;;;;;;;;;;;;;5.50;61.08;100873.00;5072034;28;20026;-82
2023/12/28 07:25:29;;;;;;;;;;;;;;;5.58;61.29;100870.63;5073344;28;20002;-82
2023/12/28 07:27:54;;;;;;;;;;;;;;;5.67;61.00;100874.34;5073098;28;19913;-81
2023/12/28 07:30:20;;;;;;;;;;;;;;;5.71;61.21;100871.41;5073133;28;19913;-82
2023/12/28 07:32:45;;;;;;;;;;;;;;;5.75;61.27;100883.31;5071464;28;19920;-82
2023/12/28 07:35:11;;;;;;;;;;;;;;;5.79;61.06;100889.16;5072720;28;20305;-82
2023/12/28 07:37:36;;;;;;;;;;;;;;;5.83;61.20;100880.13;5072858;28;19966;-82
2023/12/28 07:40:03;;;;;;;;;;;;;;;5.91;61.01;100884.81;5071663;28;19923;-81
2023/12/28 07:42:28;;;;;;;;;;;;;;;5.96;61.21;100885.34;5073067;28;19919;-82
2023/12/28 07:44:54;;;;;;;;;;;;;;;6.02;61.07;100892.75;5072685;28;19912;-83
2023/12/28 07:47:19;;;;;;;;;;;;;;;6.08;60.99;100887.03;5071464;28;19952;-82
2023/12/28 07:49:44;;;;;;;;;;;;;;;6.17;60.59;100886.34;5072694;28;19927;-81
2023/12/28 07:52:09;;;;;;;;;;;;;;;6.23;60.56;100877.16;5071350;28;19955;-82
2023/12/28 07:54:35;;;;;;;;;;;;;;;6.33;60.44;100883.38;5071205;28;20297;-82
2023/12/28 07:57:00;;;;;;;;;;;;;;;6.40;60.72;100891.59;5072468;28;19916;-82
2023/12/28 07:59:25;;;;;;;;;;;;;;;6.48;60.66;100891.84;5070903;28;20378;-82
2023/12/28 08:01:51;;;;;;;;;;;;;;;6.53;60.91;100882.66;5070824;28;19912;-81
2023/12/28 08:04:16;;;;;;;;;;;;;;;6.61;61.04;100885.53;5072135;28;19926;-84
2023/12/28 08:06:41;;;;;;;;;;;;;;;6.67;61.04;100889.47;5069756;28;19928;-84
2023/12/28 08:09:06;;;;;;;;;;;;;;;6.71;60.93;100892.72;5070753;28;19978;-83
2023/12/28 08:11:32;;;;;;;;;;;;;;;6.77;60.51;100892.22;5070478;28;20381;-81
2023/12/28 08:13:57;;;;;;;;;;;;;;;6.83;60.65;100881.25;5070642;28;19920;-83
2023/12/28 08:16:22;;;;;;;;;;;;;;;6.90;60.73;100880.63;5072242;28;19916;-82
2023/12/28 08:18:48;;;;;;;;;;;;;;;6.97;60.13;100876.56;5070809;28;19919;-81
2023/12/28 08:21:13;;;;;;;;;;;;;;;7.05;60.84;100878.59;5072061;28;19912;-83
2023/12/28 08:23:39;;;;;;;;;;;;;;;7.14;60.29;100883.09;5070743;28;19919;-82
2023/12/28 08:26:04;;;;;;;;;;;;;;;7.21;60.02;100878.19;5072032;28;19969;-82
2023/12/28 08:28:30;;;;;;;;;;;;;;;7.29;60.25;100883.66;5070480;28;20321;-82
2023/12/28 08:30:58;;;;;;;;;;;;;;;7.38;60.13;100879.44;5071759;28;19977;-83
2023/12/28 08:33:24;;;;;;;;;;;;;;;7.46;60.29;100877.88;5072030;28;19920;-84
2023/12/28 08:35:49;;;;;;;;;;;;;;;7.53;60.12;100873.81;5072041;28;20390;-81
2023/12/28 08:38:14;;;;;;;;;;;;;;;7.63;59.93;100872.09;5071604;28;19916;-83
2023/12/28 08:40:39;;;;;;;;;;;;;;;7.73;59.29;100868.69;5070280;28;19919;-82
2023/12/28 08:43:05;;;;;;;;;;;;;;;7.81;59.57;100864.47;5072128;28;19913;-82
2023/12/28 08:45:30;;;;;;;;;;;;;;;7.88;59.35;100859.53;5070321;28;19912;-82
2023/12/28 08:47:55;;;;;;;;;;;;;;;7.95;59.60;100860.69;5071536;28;19919;-83
2023/12/28 08:50:21;;;;;;;;;;;;;;;8.02;59.61;100856.56;5071643;28;19995;-83
2023/12/28 08:52:46;;;;;;;;;;;;;;;8.08;59.30;100849.97;5070452;28;19919;-83
2023/12/28 08:55:11;;;;;;;;;;;;;;;8.13;59.38;100851.22;5071432;28;20053;-82
2023/12/28 08:57:37;;;;;;;;;;;;;;;8.17;59.21;100846.53;5070227;28;19913;-83
2023/12/28 09:00:04;;;;;;;;;;;;;;;8.22;58.94;100842.59;5071473;28;19916;-82
2023/12/28 09:02:30;;;;;;;;;;;;;;;8.27;59.15;100835.13;5070329;28;19955;-83
2023/12/28 09:04:55;;;;;;;;;;;;;;;8.32;59.21;100836.53;5071532;28;19974;-83
2023/12/28 09:07:20;;;;;;;;;;;;;;;8.37;58.82;100831.75;5071486;28;20011;-83
2023/12/28 09:09:46;;;;;;;;;;;;;;;8.40;58.83;100832.31;5071521;28;19924;-84
2023/12/28 09:12:11;;;;;;;;;;;;;;;8.44;58.84;100828.44;5070318;28;20354;-81
2023/12/28 09:14:36;;;;;;;;;;;;;;;8.46;58.90;100826.50;5071491;28;19912;-82
2023/12/28 09:17:02;;;;;;;;;;;;;;;8.53;58.53;100816.28;5070076;28;19920;-83
2023/12/28 09:19:27;;;;;;;;;;;;;;;8.59;58.12;100816.59;5073732;28;19967;-83
2023/12/28 09:21:52;;;;;;;;;;;;;;;8.67;58.33;100809.81;5075309;28;20363;-82
2023/12/28 09:24:18;;;;;;;;;;;;;;;8.70;57.88;100805.09;5073774;28;19913;-82
2023/12/28 09:26:44;;;;;;;;;;;;;;;8.76;58.10;100809.00;5075036;28;19913;-82
2023/12/28 09:29:09;;;;;;;;;;;;;;;8.81;57.63;100789.19;5074687;28;19923;-82
2023/12/28 09:31:34;;;;;;;;;;;;;;;8.84;57.65;100791.56;5075059;28;19916;-80
2023/12/28 09:33:59;;;;;;;;;;;;;;;8.89;57.32;100778.81;5075041;28;19909;-81
2023/12/28 09:36:25;;;;;;;;;;;;;;;8.96;57.60;100781.75;5075157;28;19962;-80
2023/12/28 09:38:51;;;;;;;;;;;;;;;9.03;57.47;100787.31;5074968;28;19913;-82
2023/12/28 09:41:17;;;;;;;;;;;;;;;9.08;57.33;100767.47;5073709;28;19919;-81
2023/12/28 09:44:02;;;;;;;;;;;;;;;9.16;57.42;100764.16;5075020;28;19924;-83
2023/12/28 09:46:28;;;;;;;;;;;;;;;9.22;56.57;100767.06;5067897;28;19927;-82
2023/12/28 09:48:56;;;;;;;;;;;;;;;9.29;56.64;100762.06;5073450;28;19917;-82
2023/12/28 09:51:22;;;;;;;;;;;;;;;9.37;56.44;100761.38;5073585;28;19912;-83
2023/12/28 09:53:47;;;;;;;;;;;;;;;9.45;56.53;100750.94;5072040;28;19938;-82
2023/12/28 09:56:14;;;;;;;;;;;;;;;9.52;55.96;100744.97;5073203;28;19919;-82
2023/12/28 09:58:39;;;;;;;;;;;;;;;9.60;55.93;100743.41;5073017;28;19919;-82
2023/12/28 10:01:05;;;;;;;;;;;;;;;9.67;56.41;100734.84;5074996;28;19916;-82
2023/12/28 10:03:30;;;;;;;;;;;;;;;9.74;55.46;100743.84;5074660;28;19956;-83
2023/12/28 10:05:55;;;;;;;;;;;;;;;9.81;55.76;100744.91;5074166;28;19920;-84
2023/12/28 10:08:21;;;;;;;;;;;;;;;9.94;56.14;100744.59;5074731;28;19939;-83
2023/12/28 10:10:50;;;;;;;;;;;;;;;9.97;55.72;100749.59;5074884;28;19912;-83
2023/12/28 10:13:16;;;;;;;;;;;;;;;10.00;54.65;100736.09;5073377;28;19913;-83
2023/12/28 10:15:43;;;;;;;;;;;;;;;10.09;54.98;100732.59;5073084;28;19933;-82
2023/12/28 10:18:08;;;;;;;;;;;;;;;10.24;55.67;100725.06;5073253;28;19962;-83
2023/12/28 10:20:33;;;;;;;;;;;;;;;10.32;54.79;100719.88;5074605;28;20352;-82
2023/12/28 10:22:59;;;;;;;;;;;;;;;10.36;54.48;100715.13;5074260;28;19908;-83
2023/12/28 10:25:25;;;;;;;;;;;;;;;10.38;54.00;100714.00;5072954;28;20349;-82
2023/12/28 10:27:52;;;;;;;;;;;;;;;10.42;53.70;100696.91;5073075;28;19966;-82
2023/12/28 10:30:17;;;;;;;;;;;;;;;10.46;53.71;100694.81;5076991;28;20317;-82
2023/12/28 10:32:42;;;;;;;;;;;;;;;10.49;54.12;100695.34;5093417;28;19966;-81
2023/12/28 10:35:08;;;;;;;;;;;;;;;10.56;53.91;100690.28;5093959;28;20442;-81
2023/12/28 10:37:35;;;;;;;;;;;;;;;10.61;54.25;100700.41;5092988;28;19947;-82
2023/12/28 10:40:06;;;;;;;;;;;;;;;10.62;52.93;100680.94;5092767;28;19969;-82
2023/12/28 10:42:32;;;;;;;;;;;;;;;10.63;53.03;100680.78;5092883;28;19919;-81
2023/12/28 10:45:03;;;;;;;;;;;;;;;10.66;53.33;100674.38;5092621;28;19919;-82
2023/12/28 10:47:28;;;;;;;;;;;;;;;10.66;53.27;100669.09;5090306;28;19923;-82
2023/12/28 10:49:55;;;;;;;;;;;;;;;10.64;52.07;100663.13;5089101;28;20294;-82
2023/12/28 10:52:21;;;;;;;;;;;;;;;10.68;53.78;100661.84;5091043;28;19923;-82
2023/12/28 10:55:06;;;;;;;;;;;;;;;10.70;53.90;100667.81;5092364;28;19912;-82
2023/12/28 10:57:49;;;;;;;;;;;;;;;10.69;53.75;100656.41;5055114;28;20423;-81
2023/12/28 11:00:17;;;;;;;;;;;;;;;10.74;53.83;100659.41;5073693;28;19912;-81
2023/12/28 11:02:45;;;;;;;;;;;;;;;10.81;53.32;100649.06;5072082;28;19913;-82
2023/12/28 11:05:11;;;;;;;;;;;;;;;10.83;52.88;100647.09;5073158;28;19991;-82
2023/12/28 11:07:38;;;;;;;;;;;;;;;10.85;52.75;100634.59;5076887;28;19950;-82
2023/12/28 11:10:06;;;;;;;;;;;;;;;10.85;53.27;100625.81;5089185;28;19928;-82
2023/12/28 11:12:32;;;;;;;;;;;;;;;10.90;53.80;100618.25;5088962;28;19916;-81
2023/12/28 11:14:59;;;;;;;;;;;;;;;10.89;52.59;100617.44;5092016;28;19923;-81
2023/12/28 11:17:24;;;;;;;;;;;;;;;10.91;53.43;100618.13;5093028;28;20396;-81
2023/12/28 11:19:52;;;;;;;;;;;;;;;10.89;53.50;100609.50;5091402;28;19911;-82
2023/12/28 11:22:17;;;;;;;;;;;;;;;10.91;53.33;100601.44;5091370;28;19950;-82
2023/12/28 11:24:42;;;;;;;;;;;;;;;10.90;54.18;100602.41;5091346;28;19956;-81
2023/12/28 11:27:08;;;;;;;;;;;;;;;10.90;53.35;100602.41;5091296;28;20367;-81
2023/12/28 11:29:34;;;;;;;;;;;;;;;10.89;53.64;100590.19;5092765;28;19916;-82
2023/12/28 11:32:00;;;;;;;;;;;;;;;10.90;54.07;100597.97;5092675;28;19943;-82
2023/12/28 11:34:27;;;;;;;;;;;;;;;10.90;53.84;100581.28;5092838;28;20308;-82
2023/12/28 11:36:54;;;;;;;;;;;;;;;10.92;53.91;100581.94;5091297;28;19916;-80
2023/12/28 11:39:26;;;;;;;;;;;;;;;10.93;54.07;100581.78;5092625;28;19912;-82
2023/12/28 11:41:58;;;;;;;;;;;;;;;10.93;53.78;100576.50;5092610;28;19912;-81
2023/12/28 11:44:25;;;;;;;;;;;;;;;10.96;54.26;100580.66;5091238;28;19919;-81
2023/12/28 11:46:51;;;;;;;;;;;;;;;10.97;53.10;100577.03;5091261;28;20432;-82
2023/12/28 11:49:24;;;;;;;;;;;;;;;11.01;54.06;100573.91;5092623;28;19916;-81
2023/12/28 11:51:53;;;;;;;;;;;;;;;11.02;53.62;100570.28;5092650;28;19965;-82
2023/12/28 11:54:19;;;;;;;;;;;;;;;11.04;53.89;100564.84;5092261;28;19976;-82
2023/12/28 11:56:44;;;;;;;;;;;;;;;11.05;54.50;100562.06;5092119;28;19916;-82
2023/12/28 11:59:10;;;;;;;;;;;;;;;11.06;53.69;100553.13;5092415;28;19995;-83
2023/12/28 12:01:35;;;;;;;;;;;;;;;11.06;53.47;100550.50;5092195;28;20309;-83
2023/12/28 12:04:01;;;;;;;;;;;;;;;11.07;54.09;100544.22;5090955;28;19912;-82
2023/12/28 12:06:26;;;;;;;;;;;;;;;11.12;53.96;100541.94;5092041;28;19924;-82
2023/12/28 12:08:51;;;;;;;;;;;;;;;11.17;53.47;100538.03;5092153;28;19960;-81
2023/12/28 12:11:18;;;;;;;;;;;;;;;11.18;53.40;100537.03;5091938;28;19912;-84
2023/12/28 12:13:45;;;;;;;;;;;;;;;11.19;53.76;100536.88;5090057;28;20480;-82
2023/12/28 12:16:13;;;;;;;;;;;;;;;11.19;54.26;100536.88;5091943;28;19912;-81
2023/12/28 12:18:38;;;;;;;;;;;;;;;11.20;53.43;100543.00;5092018;28;19994;-79
2023/12/28 12:21:04;;;;;;;;;;;;;;;11.20;53.71;100535.06;5091904;28;19946;-80
2023/12/28 12:23:29;;;;;;;;;;;;;;;11.20;53.24;100533.25;5091980;28;19912;-80
2023/12/28 12:25:55;;;;;;;;;;;;;;;11.22;53.54;100533.09;5092179;28;20349;-81
2023/12/28 12:28:20;;;;;;;;;;;;;;;11.27;54.01;100533.44;5090550;28;19923;-82
2023/12/28 12:30:49;;;;;;;;;;;;;;;11.26;53.91;100535.28;5091663;28;19961;-82
2023/12/28 12:33:15;;;;;;;;;;;;;;;11.27;53.49;100531.63;5091836;28;19986;-82
2023/12/28 12:35:40;;;;;;;;;;;;;;;11.27;54.17;100529.00;5090871;28;20411;-82
2023/12/28 12:38:06;;;;;;;;;;;;;;;11.29;53.79;100520.91;5090772;28;19912;-82